Time;durP1;ratioP1;P1;durP2;ratioP2;P2;SDS_P1;SDS_P2;PMS_P1;PMS_P2;Temp;Humidity;BMP_temperature;BMP_pressure;BME280_temperature;BME280_humidity;BME280_pressure;Samples;Min_cycle;Max_cycle;Signal;HPM_P1;HPM_P2
2021/05/19 00:02:07;;;;;;;2.22;1.00;;;;;;;19.54;45.86;101496.53;5053829;28;20080;-64
2021/05/19 00:04:32;;;;;;;2.33;1.00;;;;;;;19.53;45.74;101497.47;5054670;28;20032;-64
2021/05/19 00:06:57;;;;;;;2.15;0.95;;;;;;;19.53;45.79;101504.56;5054961;28;20025;-63
2021/05/19 00:09:23;;;;;;;2.30;1.08;;;;;;;19.52;45.65;101495.81;5053697;28;20074;-63
2021/05/19 00:11:48;;;;;;;2.63;1.10;;;;;;;19.45;45.89;101489.28;5054620;28;20083;-64
2021/05/19 00:14:16;;;;;;;2.72;1.08;;;;;;;19.51;45.86;101499.41;5054519;28;20061;-64
2021/05/19 00:16:43;;;;;;;2.42;1.08;;;;;;;19.47;45.52;101490.03;5053754;28;20036;-64
2021/05/19 00:19:08;;;;;;;2.70;1.20;;;;;;;19.50;45.97;101502.16;5054379;28;20114;-64
2021/05/19 00:21:34;;;;;;;3.13;1.10;;;;;;;19.48;45.77;101494.34;5054498;28;20020;-64
2021/05/19 00:24:00;;;;;;;2.05;1.00;;;;;;;19.48;45.84;101502.28;5052973;28;20043;-64
2021/05/19 00:26:25;;;;;;;2.80;1.35;;;;;;;19.46;45.90;101493.63;5053942;28;20035;-64
2021/05/19 00:28:58;;;;;;;1.75;0.95;;;;;;;19.46;45.80;101501.56;5054354;28;20080;-63
2021/05/19 00:31:26;;;;;;;2.15;0.93;;;;;;;19.42;45.45;101494.81;5053222;28;20503;-63
2021/05/19 00:33:51;;;;;;;2.22;1.00;;;;;;;19.42;45.76;101488.69;5054376;28;20096;-63
2021/05/19 00:36:17;;;;;;;2.60;1.10;;;;;;;19.44;45.61;101497.34;5054020;28;20096;-64
2021/05/19 00:38:43;;;;;;;2.75;1.02;;;;;;;19.43;45.86;101493.88;5053482;28;20032;-63
2021/05/19 00:41:10;;;;;;;3.22;1.30;;;;;;;19.43;45.75;101493.03;5053804;28;20043;-63
2021/05/19 00:43:36;;;;;;;2.53;1.10;;;;;;;19.40;45.61;101489.63;5053923;28;20025;-64
2021/05/19 00:46:02;;;;;;;2.15;1.10;;;;;;;19.42;45.69;101493.97;5053029;28;20048;-64
2021/05/19 00:48:27;;;;;;;1.85;0.93;;;;;;;19.42;45.44;101486.88;5054125;28;20026;-64
2021/05/19 00:50:53;;;;;;;2.38;1.05;;;;;;;19.40;45.48;101483.53;5053111;28;20503;-63
2021/05/19 00:53:18;;;;;;;4.55;1.30;;;;;;;19.38;45.61;101480.16;5053379;28;20046;-64
2021/05/19 00:55:44;;;;;;;2.08;0.98;;;;;;;19.39;45.61;101477.41;5053721;28;20479;-64
2021/05/19 00:58:09;;;;;;;2.05;1.10;;;;;;;19.32;45.25;101464.78;5052791;28;20036;-64
2021/05/19 01:00:36;;;;;;;2.28;1.10;;;;;;;19.37;45.34;101476.66;5053675;28;20029;-64
2021/05/19 01:03:01;;;;;;;2.97;1.23;;;;;;;19.37;45.18;101476.66;5053287;28;20573;-63
2021/05/19 01:10:42;;;;;;;2.42;1.20;;;;;;;19.34;45.16;101465.50;5053524;28;20393;-64
2021/05/19 01:13:07;;;;;;;2.30;1.00;;;;;;;19.35;45.20;101469.81;5052394;28;20021;-63
2021/05/19 01:15:33;;;;;;;2.08;1.10;;;;;;;19.32;45.44;101468.25;5053723;28;20020;-64
2021/05/19 01:17:59;;;;;;;2.65;1.30;;;;;;;19.32;45.56;101473.53;5053303;28;20028;-65
2021/05/19 01:20:25;;;;;;;1.98;1.10;;;;;;;19.31;45.30;101460.44;5050165;28;20033;-64
2021/05/19 01:22:53;;;;;;;2.58;1.00;;;;;;;19.31;45.33;101471.88;5053445;28;20036;-64
2021/05/19 01:25:21;;;;;;;2.05;1.00;;;;;;;19.28;45.18;101464.19;5052806;28;20044;-63
2021/05/19 01:27:51;;;;;;;2.25;1.02;;;;;;;19.31;45.01;101473.66;5052469;28;20032;-64
2021/05/19 01:30:17;;;;;;;2.08;1.30;;;;;;;19.29;45.27;101470.28;5052721;28;20389;-65
2021/05/19 01:32:43;;;;;;;1.98;0.90;;;;;;;19.29;45.13;101459.72;5052965;28;20029;-65
2021/05/19 01:35:08;;;;;;;2.15;1.00;;;;;;;19.27;45.27;101465.13;5051063;28;20469;-64
2021/05/19 01:37:37;;;;;;;1.90;0.98;;;;;;;19.26;45.28;101466.06;5052800;28;20464;-64
2021/05/19 01:40:04;;;;;;;2.88;1.05;;;;;;;19.27;45.49;101467.75;5052769;28;20052;-64
2021/05/19 01:42:29;;;;;;;1.90;1.10;;;;;;;19.27;45.38;101459.00;5052396;28;20025;-64
2021/05/19 01:44:54;;;;;;;2.35;1.17;;;;;;;19.27;45.03;101464.28;5053166;28;20119;-64
2021/05/19 01:47:35;;;;;;;1.90;1.08;;;;;;;19.25;45.28;101463.53;5051905;28;20025;-64
2021/05/19 01:50:01;;;;;;;2.00;0.98;;;;;;;19.25;45.19;101461.75;5052929;28;20037;-64
2021/05/19 01:52:26;;;;;;;2.03;1.00;;;;;;;19.20;45.27;101456.81;5052765;28;20047;-63
2021/05/19 01:54:52;;;;;;;2.20;1.20;;;;;;;19.21;45.11;101455.84;5051995;28;20021;-66
2021/05/19 01:57:17;;;;;;;2.67;1.13;;;;;;;19.24;45.11;101460.06;5052736;28;20028;-64
2021/05/19 01:59:43;;;;;;;1.88;1.00;;;;;;;19.23;45.34;101454.91;5052629;28;20515;-64
2021/05/19 02:02:08;;;;;;;2.30;1.13;;;;;;;19.23;45.26;101460.19;5051404;28;20076;-64
2021/05/19 02:04:33;;;;;;;3.33;1.10;;;;;;;19.18;45.10;101448.19;5052683;28;20025;-64
2021/05/19 02:06:59;;;;;;;2.38;1.02;;;;;;;19.21;44.93;101462.94;5052405;28;20052;-64
2021/05/19 02:09:26;;;;;;;2.05;1.10;;;;;;;19.19;45.19;101455.13;5051503;28;20373;-64
2021/05/19 02:11:53;;;;;;;2.17;0.95;;;;;;;19.20;44.91;101464.75;5052669;28;20021;-67
2021/05/19 02:14:20;;;;;;;2.40;1.10;;;;;;;19.20;45.29;101458.59;5052413;28;20040;-66
2021/05/19 02:16:46;;;;;;;2.22;1.50;;;;;;;19.19;45.09;101456.94;5051887;28;20025;-65
2021/05/19 02:19:13;;;;;;;2.55;1.10;;;;;;;19.18;45.13;101461.41;5052102;28;20036;-65
2021/05/19 02:21:43;;;;;;;1.73;0.82;;;;;;;19.14;44.91;101457.28;5052479;28;20021;-65
2021/05/19 02:24:11;;;;;;;1.95;1.00;;;;;;;19.18;45.23;101457.88;5051271;28;20456;-64
2021/05/19 02:26:38;;;;;;;2.10;0.95;;;;;;;19.18;44.91;101457.88;5052464;28;20360;-64
2021/05/19 02:29:05;;;;;;;2.45;1.60;;;;;;;19.16;45.12;101458.00;5051976;28;20076;-64
2021/05/19 02:31:30;;;;;;;2.28;0.95;;;;;;;19.17;44.93;101462.34;5051529;28;20017;-64
2021/05/19 02:33:56;;;;;;;1.75;0.93;;;;;;;19.16;45.10;101463.28;5052065;28;20507;-65
2021/05/19 02:36:21;;;;;;;3.20;0.90;;;;;;;19.16;45.17;101459.81;5051324;28;20024;-65
2021/05/19 02:38:46;;;;;;;2.10;1.00;;;;;;;19.13;44.73;101463.53;5051763;28;20477;-64
2021/05/19 02:41:12;;;;;;;3.75;1.15;;;;;;;19.14;45.27;101462.56;5051944;28;20353;-65
2021/05/19 02:43:37;;;;;;;2.92;1.08;;;;;;;19.15;45.06;101468.69;5051280;28;20419;-65
2021/05/19 02:46:02;;;;;;;2.22;0.88;;;;;;;19.14;44.85;101464.38;5051772;28;20040;-65
2021/05/19 02:48:28;;;;;;;2.10;0.93;;;;;;;19.14;45.15;101461.75;5052125;28;20017;-66
2021/05/19 02:50:53;;;;;;;2.58;1.25;;;;;;;19.13;44.91;101454.75;5051232;28;20029;-65
2021/05/19 02:53:19;;;;;;;1.38;0.80;;;;;;;19.12;44.79;101456.56;5051577;28;20021;-64
2021/05/19 02:55:44;;;;;;;2.97;1.00;;;;;;;19.12;44.89;101459.22;5052233;28;20464;-65
2021/05/19 02:58:09;;;;;;;2.28;1.00;;;;;;;19.12;44.95;101466.28;5050713;28;20025;-64
2021/05/19 03:00:35;;;;;;;1.98;1.00;;;;;;;19.11;44.92;101457.53;5052192;28;20025;-64
2021/05/19 03:03:00;;;;;;;1.90;1.00;;;;;;;19.11;45.00;101459.34;5051661;28;20037;-63
2021/05/19 03:05:25;;;;;;;2.50;1.02;;;;;;;19.04;44.89;101448.38;5050677;28;20032;-64
2021/05/19 03:07:51;;;;;;;1.70;0.88;;;;;;;19.10;44.93;101460.28;5051631;28;20032;-64
2021/05/19 03:10:16;;;;;;;2.33;1.08;;;;;;;19.08;44.82;101457.75;5051575;28;20151;-63
2021/05/19 03:12:43;;;;;;;2.05;1.05;;;;;;;19.05;44.99;101457.97;5050938;28;20473;-63
2021/05/19 03:15:09;;;;;;;1.63;0.88;;;;;;;19.06;44.99;101467.59;5051444;28;20036;-64
2021/05/19 03:17:35;;;;;;;2.42;1.20;;;;;;;19.07;44.97;101468.44;5051295;28;20021;-64
2021/05/19 03:20:00;;;;;;;2.60;1.20;;;;;;;19.06;45.04;101470.25;5050811;28;20055;-64
2021/05/19 03:22:25;;;;;;;1.83;0.95;;;;;;;19.07;45.32;101476.34;5051141;28;20033;-64
2021/05/19 03:24:50;;;;;;;2.38;1.10;;;;;;;19.06;44.91;101475.53;5051627;28;20025;-64
2021/05/19 03:27:16;;;;;;;2.35;1.00;;;;;;;19.04;45.10;101472.13;5050611;28;20054;-63
2021/05/19 03:29:41;;;;;;;2.38;1.05;;;;;;;19.06;44.74;101472.03;5051618;28;20547;-64
2021/05/19 03:32:07;;;;;;;2.28;0.95;;;;;;;19.04;44.91;101472.13;5051207;28;20055;-65
2021/05/19 03:34:32;;;;;;;2.30;0.90;;;;;;;19.03;44.99;101473.13;5051231;28;20453;-65
2021/05/19 03:36:58;;;;;;;2.50;1.25;;;;;;;19.03;45.11;101466.03;5051551;28;20473;-64
2021/05/19 03:39:23;;;;;;;1.02;0.70;;;;;;;19.02;45.13;101469.59;5051298;28;20380;-63
2021/05/19 03:41:49;;;;;;;2.70;1.10;;;;;;;19.02;45.07;101466.13;5050555;28;20025;-63
2021/05/19 03:44:14;;;;;;;2.47;0.98;;;;;;;18.99;45.07;101467.22;5051204;28;20025;-63
2021/05/19 03:46:39;;;;;;;2.13;1.00;;;;;;;19.01;44.97;101462.66;5051423;28;20021;-63
2021/05/19 03:49:05;;;;;;;2.58;1.00;;;;;;;19.00;45.15;101460.13;5050683;28;20021;-63
2021/05/19 03:51:32;;;;;;;3.67;0.90;;;;;;;18.99;45.09;101467.22;5051449;28;20025;-63
2021/05/19 03:53:58;;;;;;;2.13;1.00;;;;;;;18.98;44.92;101462.88;5050555;28;20448;-64
2021/05/19 03:56:23;;;;;;;2.70;1.00;;;;;;;18.99;44.99;101464.59;5051302;28;20032;-64
2021/05/19 03:58:49;;;;;;;1.52;0.90;;;;;;;18.98;45.10;101462.06;5053478;28;20430;-66
2021/05/19 04:01:14;;;;;;;2.15;0.90;;;;;;;18.99;45.02;101464.59;5054346;28;20040;-63
2021/05/19 04:03:40;;;;;;;4.30;0.98;;;;;;;18.99;45.17;101461.09;5054853;28;20067;-63
2021/05/19 04:06:05;;;;;;;2.78;1.20;;;;;;;18.99;45.23;101469.00;5054482;28;20025;-65
2021/05/19 04:08:39;;;;;;;2.47;0.90;;;;;;;18.98;45.08;101464.69;5054175;28;20016;-64
2021/05/19 04:11:06;;;;;;;3.28;1.10;;;;;;;18.98;45.22;101467.34;5054593;28;20104;-65
2021/05/19 04:13:32;;;;;;;2.47;1.00;;;;;;;18.96;45.04;101456.88;5054752;28;20059;-64
2021/05/19 04:15:57;;;;;;;3.65;1.10;;;;;;;18.96;45.04;101456.03;5053929;28;20055;-64
2021/05/19 04:18:22;;;;;;;2.63;0.98;;;;;;;18.97;45.05;101463.00;5054196;28;20025;-64
2021/05/19 04:20:49;;;;;;;2.50;1.00;;;;;;;18.96;44.95;101458.66;5054406;28;20025;-63
2021/05/19 04:23:14;;;;;;;2.70;1.00;;;;;;;18.95;45.12;101462.28;5053623;28;20025;-64
2021/05/19 04:25:40;;;;;;;2.70;1.10;;;;;;;18.93;44.96;101461.53;5054524;28;20372;-64
2021/05/19 04:28:07;;;;;;;2.28;1.05;;;;;;;18.95;44.81;101465.75;5053992;28;20024;-63
2021/05/19 04:30:34;;;;;;;2.85;1.13;;;;;;;18.96;44.98;101463.94;5054025;28;20028;-64
2021/05/19 04:32:59;;;;;;;2.40;1.30;;;;;;;18.92;45.65;101463.34;5054040;28;20385;-63
2021/05/19 04:35:24;;;;;;;2.25;1.10;;;;;;;18.95;45.32;101470.22;5053829;28;20021;-64
2021/05/19 04:37:50;;;;;;;2.28;1.30;;;;;;;18.94;45.12;101476.44;5053706;28;20040;-63
2021/05/19 04:40:16;;;;;;;2.80;1.10;;;;;;;18.94;45.18;101473.78;5054011;28;20043;-63
2021/05/19 04:42:41;;;;;;;2.67;1.10;;;;;;;18.93;45.21;101472.97;5054099;28;20590;-63
2021/05/19 04:45:07;;;;;;;2.78;1.42;;;;;;;18.93;45.00;101475.59;5052933;28;20029;-64
2021/05/19 04:47:33;;;;;;;2.15;1.00;;;;;;;18.93;45.14;101474.75;5053856;28;20025;-64
2021/05/19 04:49:58;;;;;;;5.90;1.33;;;;;;;18.92;45.24;101470.44;5053375;28;20021;-63
2021/05/19 04:52:23;;;;;;;3.05;1.10;;;;;;;18.93;45.27;101469.47;5053365;28;20025;-64
2021/05/19 04:54:49;;;;;;;4.05;1.30;;;;;;;18.92;44.97;101471.28;5053964;28;20104;-64
2021/05/19 04:57:15;;;;;;;4.20;1.25;;;;;;;18.90;45.28;101467.06;5052906;28;20027;-63
2021/05/19 04:59:41;;;;;;;4.00;1.35;;;;;;;18.91;45.29;101469.56;5053603;28;20070;-65
2021/05/19 05:02:06;;;;;;;2.35;1.15;;;;;;;18.92;45.45;101471.28;5053342;28;20037;-63
2021/05/19 05:04:32;;;;;;;2.17;1.20;;;;;;;18.92;45.20;101481.00;5052975;28;20045;-64
2021/05/19 05:06:58;;;;;;;3.03;1.10;;;;;;;18.90;45.15;101474.97;5053749;28;20045;-64
2021/05/19 05:09:23;;;;;;;2.85;1.20;;;;;;;18.90;45.35;101474.97;5052262;28;20031;-64
2021/05/19 05:11:48;;;;;;;2.55;1.13;;;;;;;18.88;45.14;101474.25;5053042;28;20029;-64
2021/05/19 05:14:14;;;;;;;2.50;1.15;;;;;;;18.89;45.29;101479.41;5053274;28;20116;-64
2021/05/19 05:16:39;;;;;;;3.10;1.10;;;;;;;18.90;45.46;101482.91;5061993;28;20025;-64
2021/05/19 05:19:04;;;;;;;3.08;1.30;;;;;;;18.90;45.11;101482.91;5069136;28;20029;-64
2021/05/19 05:21:30;;;;;;;2.45;1.10;;;;;;;18.90;45.54;101477.63;5064550;28;20025;-63
2021/05/19 05:23:55;;;;;;;3.33;1.25;;;;;;;18.89;45.34;101474.13;5065856;28;20098;-64
2021/05/19 05:26:21;;;;;;;3.35;1.30;;;;;;;18.92;45.52;101481.84;5058990;28;20033;-65
2021/05/19 05:28:46;;;;;;;2.92;1.00;;;;;;;18.95;45.09;101484.25;5070825;28;20032;-64
2021/05/19 05:31:11;;;;;;;2.42;0.90;;;;;;;18.99;45.54;101484.84;5073250;28;20013;-63
2021/05/19 05:33:37;;;;;;;2.45;0.90;;;;;;;19.02;45.32;101487.25;5072328;28;20017;-64
2021/05/19 05:36:04;;;;;;;2.50;1.05;;;;;;;19.07;45.45;101482.47;5055363;28;20474;-62
2021/05/19 05:38:29;;;;;;;3.58;1.00;;;;;;;19.10;45.25;101491.97;5054449;28;20116;-64
2021/05/19 05:40:54;;;;;;;2.95;1.00;;;;;;;19.11;45.38;101485.75;5053147;28;20053;-63
2021/05/19 05:43:20;;;;;;;3.92;1.13;;;;;;;19.16;45.32;101492.34;5053502;28;20146;-64
2021/05/19 05:45:45;;;;;;;2.40;0.88;;;;;;;19.20;45.58;101491.19;5054070;28;20481;-64
2021/05/19 05:48:10;;;;;;;3.67;0.90;;;;;;;19.24;45.53;101494.41;5052528;28;20048;-64
2021/05/19 05:50:35;;;;;;;3.53;1.30;;;;;;;19.28;45.25;101495.88;5053314;28;20108;-64
2021/05/19 05:53:01;;;;;;;3.42;0.85;;;;;;;19.29;45.49;101491.44;5053651;28;20029;-64
2021/05/19 05:55:26;;;;;;;3.15;1.10;;;;;;;19.31;44.90;101497.44;5052515;28;20045;-64
2021/05/19 05:57:52;;;;;;;3.20;1.10;;;;;;;19.37;45.38;101505.72;5052910;28;20578;-63
2021/05/19 06:00:19;;;;;;;3.38;1.00;;;;;;;19.39;44.93;101505.63;5052450;28;20120;-63
2021/05/19 06:02:45;;;;;;;2.40;0.93;;;;;;;19.42;45.18;101509.84;5052252;28;20045;-63
2021/05/19 06:05:11;;;;;;;2.70;1.08;;;;;;;19.38;45.37;101506.59;5052634;28;20090;-64
2021/05/19 06:07:37;;;;;;;2.60;0.90;;;;;;;19.44;45.11;101514.06;5052022;28;20021;-62
2021/05/19 06:10:04;;;;;;;2.75;0.90;;;;;;;19.46;45.15;101514.78;5052316;28;20070;-63
2021/05/19 06:12:29;;;;;;;3.30;1.15;;;;;;;19.49;45.21;101511.06;5052712;28;20119;-63
2021/05/19 06:14:55;;;;;;;3.13;1.10;;;;;;;19.52;45.15;101511.66;5051928;28;20039;-63
2021/05/19 06:17:20;;;;;;;3.00;1.00;;;;;;;19.55;44.86;101503.50;5051857;28;20028;-64
2021/05/19 06:19:45;;;;;;;3.75;1.10;;;;;;;19.60;44.80;101504.94;5052441;28;20029;-64
2021/05/19 06:22:10;;;;;;;2.58;0.90;;;;;;;19.62;44.89;101501.22;5051077;28;20025;-63
2021/05/19 06:24:36;;;;;;;3.15;1.00;;;;;;;19.67;44.27;101504.34;5052114;28;20108;-64
2021/05/19 06:27:02;;;;;;;3.25;0.95;;;;;;;19.69;44.69;101505.09;5052055;28;20103;-64
2021/05/19 06:29:28;;;;;;;2.95;0.90;;;;;;;19.70;44.39;101498.00;5051053;28;20167;-64
2021/05/19 06:31:53;;;;;;;2.50;0.88;;;;;;;19.74;44.64;101500.28;5051873;28;20543;-63
2021/05/19 06:34:19;;;;;;;2.08;0.90;;;;;;;19.75;44.98;101498.47;5051959;28;20082;-65
2021/05/19 06:36:46;;;;;;;3.42;1.10;;;;;;;19.73;45.21;101501.22;5051978;28;20364;-65
2021/05/19 06:39:13;;;;;;;2.22;0.98;;;;;;;19.81;45.00;101508.59;5052813;28;20025;-65
2021/05/19 06:41:42;;;;;;;3.72;1.30;;;;;;;19.82;45.34;101505.00;5052406;28;20060;-65
2021/05/19 06:44:09;;;;;;;2.67;0.93;;;;;;;19.86;45.36;101508.25;5052028;28;20040;-64
2021/05/19 06:46:34;;;;;;;3.42;1.08;;;;;;;19.87;45.19;101509.94;5052662;28;20036;-61
2021/05/19 06:49:03;;;;;;;3.40;0.85;;;;;;;19.84;45.55;101511.00;5051873;28;20559;-61
2021/05/19 06:51:30;;;;;;;3.65;0.90;;;;;;;19.85;45.27;101512.69;5051169;28;20041;-63
2021/05/19 06:53:55;;;;;;;2.95;1.08;;;;;;;19.84;45.75;101507.53;5051769;28;20028;-61
2021/05/19 06:56:21;;;;;;;3.95;1.40;;;;;;;19.82;45.66;101507.66;5051396;28;20029;-61
2021/05/19 06:58:46;;;;;;;3.75;1.10;;;;;;;19.82;45.52;101506.78;5050873;28;20036;-60
2021/05/19 07:01:11;;;;;;;3.67;1.00;;;;;;;19.82;45.81;101512.94;5051095;28;20538;-62
2021/05/19 07:03:37;;;;;;;3.17;1.08;;;;;;;19.80;45.72;101519.31;5050941;28;20087;-61
2021/05/19 07:06:02;;;;;;;3.63;1.30;;;;;;;19.82;45.93;101520.00;5051258;28;20032;-62
2021/05/19 07:08:27;;;;;;;2.90;1.10;;;;;;;19.80;45.71;101521.94;5067047;28;20032;-61
2021/05/19 07:10:53;;;;;;;2.55;1.10;;;;;;;19.79;45.85;101523.75;5050772;28;20032;-63
2021/05/19 07:13:18;;;;;;;4.55;1.13;;;;;;;19.74;46.19;101516.16;5051205;28;20032;-64
2021/05/19 07:15:46;;;;;;;3.63;1.10;;;;;;;19.77;46.24;101530.94;5051428;28;20136;-63
2021/05/19 07:18:11;;;;;;;4.95;1.30;;;;;;;19.78;46.26;101523.88;5050150;28;20548;-62
2021/05/19 07:20:37;;;;;;;4.00;1.30;;;;;;;19.78;46.37;101522.06;5051175;28;20100;-62
2021/05/19 07:23:03;;;;;;;3.10;1.15;;;;;;;19.77;46.73;101525.66;5051166;28;20017;-62
2021/05/19 07:25:28;;;;;;;2.83;1.10;;;;;;;19.78;46.89;101530.00;5050579;28;20455;-62
2021/05/19 07:27:57;;;;;;;4.50;1.25;;;;;;;19.78;47.05;101529.16;5051511;28;20045;-63
2021/05/19 07:30:23;;;;;;;2.63;1.05;;;;;;;19.76;47.03;101524.00;5050669;28;20388;-62
2021/05/19 07:32:49;;;;;;;3.78;1.20;;;;;;;19.75;46.95;101524.91;5050943;28;20514;-61
2021/05/19 07:35:14;;;;;;;4.18;1.20;;;;;;;19.77;47.07;101522.19;5055757;28;20025;-65
2021/05/19 07:37:40;;;;;;;4.18;1.40;;;;;;;19.79;47.16;101533.47;5055630;28;20021;-68
2021/05/19 07:40:06;;;;;;;3.22;1.17;;;;;;;19.78;47.05;101531.81;5054254;28;20025;-65
2021/05/19 07:42:32;;;;;;;5.90;1.70;;;;;;;19.78;47.27;101530.00;5055393;28;20025;-65
2021/05/19 07:44:57;;;;;;;3.75;1.30;;;;;;;19.78;46.98;101537.94;5055105;28;20027;-66
2021/05/19 07:47:23;;;;;;;4.90;1.20;;;;;;;19.78;47.19;101530.00;5054025;28;20364;-66
2021/05/19 07:49:48;;;;;;;5.65;1.38;;;;;;;19.77;47.27;101525.66;5055295;28;20033;-66
2021/05/19 07:52:13;;;;;;;3.88;1.23;;;;;;;19.79;47.06;101538.75;5054719;28;20030;-65
2021/05/19 07:54:38;;;;;;;4.30;1.48;;;;;;;19.80;47.24;101528.06;5054326;28;20025;-68
2021/05/19 07:57:38;;;;;;;2.55;1.00;;;;;;;19.81;46.94;101521.81;5054595;28;20460;-64
2021/05/19 08:02:34;;;;;;;5.50;1.40;;;;;;;19.77;47.00;101535.41;5054994;28;20113;-64
2021/05/19 08:04:59;;;;;;;3.45;1.20;;;;;;;19.75;46.69;101528.38;5054716;28;20437;-64
2021/05/19 08:07:24;;;;;;;4.25;1.30;;;;;;;19.75;46.73;101528.38;5053768;28;20021;-65
2021/05/19 08:09:50;;;;;;;3.80;1.20;;;;;;;19.71;46.95;101526.97;5055733;28;20025;-65
2021/05/19 08:12:15;;;;;;;4.00;1.20;;;;;;;19.73;46.83;101532.13;5055701;28;20448;-66
2021/05/19 08:14:40;;;;;;;4.07;1.50;;;;;;;19.64;46.83;101512.50;5054314;28;20020;-65
2021/05/19 08:17:05;;;;;;;3.50;1.38;;;;;;;19.65;46.96;101518.66;5055995;28;20376;-66
2021/05/19 08:19:31;;;;;;;4.13;1.80;;;;;;;19.72;46.89;101528.63;5059635;28;20029;-66
2021/05/19 08:21:56;;;;;;;4.68;1.60;;;;;;;19.66;46.64;101526.47;5055293;28;20053;-65
2021/05/19 08:24:21;;;;;;;5.40;1.70;;;;;;;19.68;46.57;101529.84;5054187;28;20060;-65
2021/05/19 08:26:47;;;;;;;5.57;1.48;;;;;;;19.62;46.75;101529.47;5070095;28;20078;-66
2021/05/19 08:29:12;;;;;;;3.38;1.20;;;;;;;19.65;46.94;101538.00;5053932;28;20029;-64
2021/05/19 08:31:37;;;;;;;2.90;1.15;;;;;;;19.66;46.93;101530.91;5054494;28;20049;-64
2021/05/19 08:34:03;;;;;;;4.45;1.38;;;;;;;19.67;46.73;101535.25;5053929;28;20047;-65
2021/05/19 08:36:28;;;;;;;3.90;1.17;;;;;;;19.67;46.87;101529.97;5053848;28;20391;-65
2021/05/19 08:38:54;;;;;;;4.03;1.27;;;;;;;19.67;46.70;101528.13;5054657;28;20045;-66
2021/05/19 08:41:20;;;;;;;2.60;1.10;;;;;;;19.65;46.58;101522.13;5053734;28;20457;-64
2021/05/19 08:43:46;;;;;;;3.25;1.23;;;;;;;19.68;46.74;101523.72;5053103;28;20035;-62
2021/05/19 08:46:12;;;;;;;3.80;1.30;;;;;;;19.68;46.63;101521.06;5053672;28;20013;-65
2021/05/19 08:48:38;;;;;;;2.40;1.00;;;;;;;19.70;46.97;101524.44;5054437;28;20103;-65
2021/05/19 08:51:05;;;;;;;3.83;1.20;;;;;;;19.69;46.79;101515.66;5053185;28;20037;-65
2021/05/19 08:53:32;;;;;;;4.55;1.23;;;;;;;19.71;46.46;101521.66;5053750;28;20064;-68
2021/05/19 08:55:58;;;;;;;4.00;1.40;;;;;;;19.73;46.46;101513.63;5054570;28;20436;-65
2021/05/19 08:58:24;;;;;;;3.55;1.08;;;;;;;19.74;46.64;101510.84;5052942;28;20120;-63
2021/05/19 09:00:49;;;;;;;2.70;1.00;;;;;;;19.73;46.91;101514.44;5053437;28;20495;-66
2021/05/19 09:03:16;;;;;;;3.65;1.10;;;;;;;19.74;46.97;101508.22;5052564;28;20061;-66
2021/05/19 09:05:44;;;;;;;3.03;1.20;;;;;;;19.76;46.95;101502.84;5053786;28;20029;-64
2021/05/19 09:08:14;;;;;;;4.10;1.00;;;;;;;19.78;46.88;101498.25;5053235;28;20502;-65
2021/05/19 09:10:41;;;;;;;3.70;1.20;;;;;;;19.79;46.63;101501.72;5053361;28;20036;-66
2021/05/19 09:13:27;;;;;;;2.80;0.93;;;;;;;19.82;46.54;101499.72;5053569;28;20028;-65
2021/05/19 09:15:53;;;;;;;3.97;1.17;;;;;;;19.84;46.98;101489.84;5045894;28;20029;-65
2021/05/19 09:18:18;;;;;;;2.70;1.17;;;;;;;19.88;47.01;101496.56;5052481;28;20036;-69
2021/05/19 09:20:49;;;;;;;3.88;1.75;;;;;;;19.89;46.68;101497.44;5053631;28;20476;-71
2021/05/19 09:23:23;;;;;;;4.20;1.33;;;;;;;19.87;46.90;101491.41;5053119;28;20033;-67
2021/05/19 09:26:04;;;;;;;;;;;;;;;19.89;46.81;101492.13;5053437;28;20426;-65
2021/05/19 09:28:30;;;;;;;2.78;1.05;;;;;;;19.88;46.67;101491.28;5053792;28;19912;-66
2021/05/19 09:30:56;;;;;;;2.40;1.10;;;;;;;19.90;46.64;101502.59;5053384;28;20118;-64
2021/05/19 09:33:27;;;;;;;4.97;1.20;;;;;;;19.89;46.92;101492.97;5052152;28;20540;-66
2021/05/19 09:36:14;;;;;;;3.90;1.30;;;;;;;19.93;46.69;101486.47;5053445;28;20029;-67
2021/05/19 09:38:40;;;;;;;3.80;1.30;;;;;;;19.93;46.69;101490.91;5052591;28;20234;-67
2021/05/19 09:41:38;;;;;;;3.53;1.20;;;;;;;19.96;46.70;101488.03;5053283;28;20059;-67
2021/05/19 09:44:06;;;;;;;4.60;1.58;;;;;;;19.98;46.69;101488.78;5040980;28;20044;-68
2021/05/19 09:49:15;;;;;;;4.00;1.30;;;;;;;19.94;47.08;101484.66;5053179;28;20021;-66
2021/05/19 09:51:43;;;;;;;4.90;1.50;;;;;;;19.96;46.68;101482.72;5052786;28;20041;-67
2021/05/19 09:54:27;;;;;;;4.07;1.40;;;;;;;19.96;46.68;101488.03;5052048;28;20399;-66
2021/05/19 09:56:57;;;;;;;3.10;1.30;;;;;;;19.96;46.64;101481.91;5052566;28;20032;-67
2021/05/19 09:59:24;;;;;;;4.60;1.67;;;;;;;19.94;47.03;101479.38;5053754;28;20285;-67
2021/05/19 10:01:50;;;;;;;3.80;1.50;;;;;;;19.93;46.49;101481.19;5052329;28;20032;-66
2021/05/19 10:04:17;;;;;;;4.97;1.65;;;;;;;19.90;46.71;101476.16;5052752;28;20024;-66
2021/05/19 10:06:43;;;;;;;4.97;1.65;;;;;;;19.90;46.98;101485.88;5052217;28;20029;-71
2021/05/19 10:09:08;;;;;;;5.05;1.70;;;;;;;19.86;46.89;101482.63;5052716;28;20025;-65
2021/05/19 10:11:35;;;;;;;5.43;1.65;;;;;;;19.87;46.76;101483.50;5053272;28;20616;-64
2021/05/19 10:14:03;;;;;;;3.97;1.40;;;;;;;19.85;46.87;101480.97;5052541;28;20108;-66
2021/05/19 10:16:30;;;;;;;3.30;1.40;;;;;;;19.83;46.71;101480.22;5053073;28;20408;-69
2021/05/19 10:18:57;;;;;;;3.70;1.70;;;;;;;19.81;46.80;101487.44;5052409;28;20029;-66
2021/05/19 10:21:29;;;;;;;4.00;1.80;;;;;;;19.82;46.57;101496.22;5023535;28;20042;-67
2021/05/19 10:24:03;;;;;;;3.50;1.48;;;;;;;19.79;46.79;101491.16;5043031;28;116183;-66
2021/05/19 10:26:31;;;;;;;4.03;1.73;;;;;;;19.79;47.09;101499.09;5052464;28;20031;-67
2021/05/19 10:28:59;;;;;;;5.45;1.60;;;;;;;19.81;46.84;101498.03;5051811;28;20028;-66
2021/05/19 10:31:33;;;;;;;5.38;1.45;;;;;;;19.79;46.98;101499.94;5051688;28;20049;-67
2021/05/19 10:34:00;;;;;;;3.88;1.48;;;;;;;19.78;47.00;101498.25;5052511;28;20029;-65
2021/05/19 10:36:25;;;;;;;3.83;1.30;;;;;;;19.76;46.81;101497.53;5051803;28;20062;-66
2021/05/19 10:39:08;;;;;;;3.23;1.40;;;;;;;19.74;47.01;101512.63;5053568;28;20036;-65
2021/05/19 10:41:45;;;;;;;3.10;1.30;;;;;;;19.72;47.16;101527.78;5052813;28;20304;-65
2021/05/19 10:44:22;;;;;;;4.53;1.50;;;;;;;19.69;46.85;101514.81;5050408;28;20112;-66
2021/05/19 10:46:53;;;;;;;4.90;1.50;;;;;;;19.67;47.02;101514.09;5052828;28;20032;-70
2021/05/19 10:49:19;;;;;;;3.25;1.23;;;;;;;19.65;47.19;101527.44;5052352;28;20053;-65
2021/05/19 12:38:06;;;;;;;1.50;0.70;;;;;;;19.45;49.90;101578.34;5126454;27;837460;-69
2021/05/19 12:40:33;;;;;;;1.77;0.68;;;;;;;19.42;49.91;101578.56;5107766;28;20397;-69
2021/05/19 12:43:00;;;;;;;2.50;1.15;;;;;;;19.44;49.87;101579.28;5106970;28;20019;-69
2021/05/19 12:45:31;;;;;;;2.88;1.48;;;;;;;19.43;50.16;101577.63;5109238;28;20039;-68
2021/05/19 12:48:17;;;;;;;2.95;1.40;;;;;;;19.42;50.13;101576.75;5110209;28;20079;-68
2021/05/19 13:25:23;;;;;;;2.05;0.85;;;;;;;19.42;50.03;101579.41;5107913;27;20393;-65
2021/05/19 13:27:50;;;;;;;3.10;1.20;;;;;;;19.42;50.40;101573.28;5129766;28;20490;-67
2021/05/19 13:30:16;;;;;;;3.85;1.10;;;;;;;19.44;50.53;101563.41;5130142;27;20466;-70
2021/05/19 13:32:55;;;;;;;5.85;1.30;;;;;;;19.46;50.36;101567.66;5129428;27;20023;-68
2021/05/19 13:38:16;;;;;;;2.75;1.20;;;;;;;19.50;49.96;101568.25;5129940;27;20038;-68
2021/05/19 13:40:41;;;;;;;4.70;1.23;;;;;;;19.49;49.92;101575.34;5130515;27;20019;-68
2021/05/19 13:43:07;;;;;;;1.75;0.93;;;;;;;19.49;49.85;101578.00;5129993;27;20381;-67
2021/05/19 13:45:32;;;;;;;3.70;1.30;;;;;;;19.51;49.84;101572.59;5099519;27;20049;-67
2021/05/19 13:47:57;;;;;;;2.72;1.10;;;;;;;19.51;49.93;101578.72;5090076;28;20024;-67
2021/05/19 13:50:23;;;;;;;3.72;1.40;;;;;;;19.54;50.12;101575.00;5089701;28;20024;-66
2021/05/19 13:52:48;;;;;;;3.15;1.27;;;;;;;19.55;50.10;101576.66;5088751;28;20064;-65
2021/05/19 13:55:13;;;;;;;3.05;1.10;;;;;;;19.56;50.01;101579.19;5089585;28;20016;-66
2021/05/19 13:57:39;;;;;;;3.03;1.10;;;;;;;19.57;49.86;101583.53;5089993;28;20080;-66